sensor_id;sensor_type;location;lat;lon;timestamp;P1;durP1;ratioP1;P2;durP2;ratioP2
37299;SDS011;23184;51.902;12.836;2023-07-31T00:02:14;9.90;;;4.60;;
37299;SDS011;23184;51.902;12.836;2023-07-31T00:04:39;10.82;;;4.00;;
37299;SDS011;23184;51.902;12.836;2023-07-31T00:07:05;8.07;;;4.10;;
37299;SDS011;23184;51.902;12.836;2023-07-31T00:09:31;9.63;;;4.28;;
37299;SDS011;23184;51.902;12.836;2023-07-31T00:11:57;11.00;;;4.13;;
37299;SDS011;23184;51.902;12.836;2023-07-31T00:14:23;11.57;;;3.53;;
37299;SDS011;23184;51.902;12.836;2023-07-31T00:16:48;7.93;;;3.80;;
37299;SDS011;23184;51.902;12.836;2023-07-31T00:19:14;9.40;;;3.60;;
37299;SDS011;23184;51.902;12.836;2023-07-31T00:21:40;9.80;;;3.25;;
37299;SDS011;23184;51.902;12.836;2023-07-31T00:24:05;9.90;;;3.75;;
37299;SDS011;23184;51.902;12.836;2023-07-31T00:26:31;9.60;;;3.30;;
37299;SDS011;23184;51.902;12.836;2023-07-31T00:28:56;10.18;;;3.22;;
37299;SDS011;23184;51.902;12.836;2023-07-31T00:31:22;5.78;;;3.55;;
37299;SDS011;23184;51.902;12.836;2023-07-31T00:33:47;7.97;;;3.80;;
37299;SDS011;23184;51.902;12.836;2023-07-31T00:36:13;7.22;;;3.17;;
37299;SDS011;23184;51.902;12.836;2023-07-31T00:38:38;7.55;;;3.03;;
37299;SDS011;23184;51.902;12.836;2023-07-31T00:41:04;14.20;;;3.50;;
37299;SDS011;23184;51.902;12.836;2023-07-31T00:43:29;7.15;;;3.00;;
37299;SDS011;23184;51.902;12.836;2023-07-31T00:45:55;6.00;;;3.13;;
37299;SDS011;23184;51.902;12.836;2023-07-31T00:48:20;10.27;;;2.97;;
37299;SDS011;23184;51.902;12.836;2023-07-31T00:50:46;10.43;;;3.42;;
37299;SDS011;23184;51.902;12.836;2023-07-31T00:53:12;11.00;;;2.80;;
37299;SDS011;23184;51.902;12.836;2023-07-31T00:55:38;7.88;;;2.65;;
37299;SDS011;23184;51.902;12.836;2023-07-31T00:58:04;10.70;;;3.20;;
37299;SDS011;23184;51.902;12.836;2023-07-31T01:00:30;6.03;;;2.30;;
37299;SDS011;23184;51.902;12.836;2023-07-31T01:02:55;9.30;;;2.80;;
37299;SDS011;23184;51.902;12.836;2023-07-31T01:05:25;10.30;;;3.15;;
37299;SDS011;23184;51.902;12.836;2023-07-31T01:11:15;11.05;;;2.75;;
37299;SDS011;23184;51.902;12.836;2023-07-31T01:13:46;9.07;;;2.80;;
37299;SDS011;23184;51.902;12.836;2023-07-31T01:16:12;15.55;;;3.25;;
37299;SDS011;23184;51.902;12.836;2023-07-31T01:18:38;8.73;;;2.78;;
37299;SDS011;23184;51.902;12.836;2023-07-31T01:21:06;8.77;;;2.67;;
37299;SDS011;23184;51.902;12.836;2023-07-31T01:28:46;10.30;;;2.47;;
37299;SDS011;23184;51.902;12.836;2023-07-31T01:31:16;6.97;;;2.70;;
37299;SDS011;23184;51.902;12.836;2023-07-31T01:33:46;6.60;;;2.15;;
37299;SDS011;23184;51.902;12.836;2023-07-31T01:36:12;10.18;;;2.35;;
37299;SDS011;23184;51.902;12.836;2023-07-31T01:38:38;6.72;;;2.42;;
37299;SDS011;23184;51.902;12.836;2023-07-31T01:41:03;9.50;;;3.03;;
37299;SDS011;23184;51.902;12.836;2023-07-31T01:43:29;8.15;;;2.10;;
37299;SDS011;23184;51.902;12.836;2023-07-31T01:45:54;9.70;;;2.33;;
37299;SDS011;23184;51.902;12.836;2023-07-31T01:48:20;12.05;;;2.40;;
37299;SDS011;23184;51.902;12.836;2023-07-31T01:50:45;6.95;;;2.20;;
37299;SDS011;23184;51.902;12.836;2023-07-31T01:53:11;6.63;;;2.30;;
37299;SDS011;23184;51.902;12.836;2023-07-31T01:55:38;10.30;;;2.05;;
37299;SDS011;23184;51.902;12.836;2023-07-31T01:58:03;6.90;;;2.13;;
37299;SDS011;23184;51.902;12.836;2023-07-31T02:00:29;9.43;;;2.42;;
37299;SDS011;23184;51.902;12.836;2023-07-31T02:02:54;6.22;;;2.13;;
37299;SDS011;23184;51.902;12.836;2023-07-31T02:05:20;6.93;;;2.15;;
37299;SDS011;23184;51.902;12.836;2023-07-31T02:07:45;6.28;;;2.47;;
37299;SDS011;23184;51.902;12.836;2023-07-31T02:10:11;11.52;;;3.10;;
37299;SDS011;23184;51.902;12.836;2023-07-31T02:12:37;9.23;;;2.50;;
37299;SDS011;23184;51.902;12.836;2023-07-31T02:15:03;7.60;;;2.30;;
37299;SDS011;23184;51.902;12.836;2023-07-31T02:17:29;6.30;;;2.45;;
37299;SDS011;23184;51.902;12.836;2023-07-31T02:19:54;6.18;;;2.42;;
37299;SDS011;23184;51.902;12.836;2023-07-31T02:22:20;11.10;;;2.83;;
37299;SDS011;23184;51.902;12.836;2023-07-31T02:24:45;6.03;;;2.45;;
37299;SDS011;23184;51.902;12.836;2023-07-31T02:27:11;7.95;;;2.67;;
37299;SDS011;23184;51.902;12.836;2023-07-31T02:29:36;4.40;;;2.65;;
37299;SDS011;23184;51.902;12.836;2023-07-31T02:32:02;8.07;;;2.55;;
37299;SDS011;23184;51.902;12.836;2023-07-31T02:34:28;10.05;;;2.83;;
37299;SDS011;23184;51.902;12.836;2023-07-31T02:36:53;9.13;;;2.67;;
37299;SDS011;23184;51.902;12.836;2023-07-31T02:39:19;8.00;;;2.40;;
37299;SDS011;23184;51.902;12.836;2023-07-31T02:41:44;7.43;;;3.08;;
37299;SDS011;23184;51.902;12.836;2023-07-31T02:44:10;13.80;;;3.13;;
37299;SDS011;23184;51.902;12.836;2023-07-31T02:46:38;6.25;;;2.65;;
37299;SDS011;23184;51.902;12.836;2023-07-31T02:49:04;12.18;;;2.72;;
37299;SDS011;23184;51.902;12.836;2023-07-31T02:51:29;7.03;;;2.53;;
37299;SDS011;23184;51.902;12.836;2023-07-31T02:53:55;9.40;;;3.25;;
37299;SDS011;23184;51.902;12.836;2023-07-31T02:56:20;9.25;;;3.08;;
37299;SDS011;23184;51.902;12.836;2023-07-31T02:58:46;8.27;;;3.03;;
37299;SDS011;23184;51.902;12.836;2023-07-31T03:01:11;6.15;;;2.40;;
37299;SDS011;23184;51.902;12.836;2023-07-31T03:03:37;5.72;;;2.30;;
37299;SDS011;23184;51.902;12.836;2023-07-31T03:06:02;7.88;;;2.30;;
37299;SDS011;23184;51.902;12.836;2023-07-31T03:08:28;8.25;;;2.30;;
37299;SDS011;23184;51.902;12.836;2023-07-31T03:10:53;8.32;;;2.92;;
37299;SDS011;23184;51.902;12.836;2023-07-31T03:13:19;4.93;;;2.13;;
37299;SDS011;23184;51.902;12.836;2023-07-31T03:15:44;8.70;;;2.67;;
37299;SDS011;23184;51.902;12.836;2023-07-31T03:18:10;9.32;;;2.80;;
37299;SDS011;23184;51.902;12.836;2023-07-31T03:20:35;9.43;;;2.60;;
37299;SDS011;23184;51.902;12.836;2023-07-31T03:23:01;7.95;;;2.45;;
37299;SDS011;23184;51.902;12.836;2023-07-31T03:25:26;7.22;;;2.67;;
37299;SDS011;23184;51.902;12.836;2023-07-31T03:27:52;7.43;;;2.47;;
37299;SDS011;23184;51.902;12.836;2023-07-31T03:30:17;8.55;;;2.70;;
37299;SDS011;23184;51.902;12.836;2023-07-31T03:32:43;6.30;;;2.28;;
37299;SDS011;23184;51.902;12.836;2023-07-31T03:35:08;13.88;;;3.00;;
37299;SDS011;23184;51.902;12.836;2023-07-31T03:37:34;10.98;;;2.65;;
37299;SDS011;23184;51.902;12.836;2023-07-31T03:39:59;6.68;;;2.22;;
37299;SDS011;23184;51.902;12.836;2023-07-31T03:42:25;7.40;;;2.67;;
37299;SDS011;23184;51.902;12.836;2023-07-31T03:44:50;8.50;;;2.60;;
37299;SDS011;23184;51.902;12.836;2023-07-31T03:47:16;9.38;;;2.92;;
37299;SDS011;23184;51.902;12.836;2023-07-31T03:49:41;10.77;;;2.90;;
37299;SDS011;23184;51.902;12.836;2023-07-31T03:52:07;8.82;;;2.38;;
37299;SDS011;23184;51.902;12.836;2023-07-31T03:54:32;6.93;;;2.50;;
37299;SDS011;23184;51.902;12.836;2023-07-31T03:56:58;7.65;;;2.53;;
37299;SDS011;23184;51.902;12.836;2023-07-31T03:59:23;7.75;;;2.88;;
37299;SDS011;23184;51.902;12.836;2023-07-31T04:01:49;9.02;;;3.30;;
37299;SDS011;23184;51.902;12.836;2023-07-31T04:04:14;10.02;;;2.90;;
37299;SDS011;23184;51.902;12.836;2023-07-31T04:06:40;10.10;;;2.85;;
37299;SDS011;23184;51.902;12.836;2023-07-31T04:09:05;5.68;;;3.28;;
37299;SDS011;23184;51.902;12.836;2023-07-31T04:11:31;9.00;;;2.67;;
37299;SDS011;23184;51.902;12.836;2023-07-31T04:13:57;9.73;;;3.00;;
37299;SDS011;23184;51.902;12.836;2023-07-31T04:16:22;7.50;;;2.90;;
37299;SDS011;23184;51.902;12.836;2023-07-31T04:18:48;8.70;;;2.88;;
37299;SDS011;23184;51.902;12.836;2023-07-31T04:21:13;11.43;;;3.20;;
37299;SDS011;23184;51.902;12.836;2023-07-31T04:23:39;10.90;;;3.45;;
37299;SDS011;23184;51.902;12.836;2023-07-31T04:26:04;7.85;;;3.15;;
37299;SDS011;23184;51.902;12.836;2023-07-31T04:28:30;4.60;;;2.70;;
37299;SDS011;23184;51.902;12.836;2023-07-31T04:30:56;9.55;;;2.88;;
37299;SDS011;23184;51.902;12.836;2023-07-31T04:33:22;9.90;;;3.30;;
37299;SDS011;23184;51.902;12.836;2023-07-31T04:35:49;9.02;;;3.22;;
37299;SDS011;23184;51.902;12.836;2023-07-31T04:38:21;9.45;;;3.67;;
37299;SDS011;23184;51.902;12.836;2023-07-31T04:40:48;9.23;;;4.00;;
37299;SDS011;23184;51.902;12.836;2023-07-31T04:43:14;12.38;;;4.00;;
37299;SDS011;23184;51.902;12.836;2023-07-31T04:45:41;9.82;;;4.15;;
37299;SDS011;23184;51.902;12.836;2023-07-31T04:48:09;14.60;;;4.20;;
37299;SDS011;23184;51.902;12.836;2023-07-31T04:50:35;11.00;;;4.15;;
37299;SDS011;23184;51.902;12.836;2023-07-31T04:53:00;10.02;;;3.83;;
37299;SDS011;23184;51.902;12.836;2023-07-31T04:55:26;8.73;;;3.55;;
37299;SDS011;23184;51.902;12.836;2023-07-31T04:57:51;8.88;;;3.83;;
37299;SDS011;23184;51.902;12.836;2023-07-31T05:00:18;9.82;;;3.35;;
37299;SDS011;23184;51.902;12.836;2023-07-31T05:02:43;10.93;;;4.20;;
37299;SDS011;23184;51.902;12.836;2023-07-31T05:05:09;7.07;;;3.22;;
37299;SDS011;23184;51.902;12.836;2023-07-31T05:07:34;13.52;;;3.88;;
37299;SDS011;23184;51.902;12.836;2023-07-31T05:10:00;8.38;;;3.65;;
37299;SDS011;23184;51.902;12.836;2023-07-31T05:12:25;10.18;;;3.47;;
37299;SDS011;23184;51.902;12.836;2023-07-31T05:14:50;9.10;;;3.60;;
37299;SDS011;23184;51.902;12.836;2023-07-31T05:17:16;9.02;;;3.65;;
37299;SDS011;23184;51.902;12.836;2023-07-31T05:19:41;7.57;;;3.67;;
37299;SDS011;23184;51.902;12.836;2023-07-31T05:22:07;9.75;;;3.55;;
37299;SDS011;23184;51.902;12.836;2023-07-31T05:24:33;7.47;;;3.50;;
37299;SDS011;23184;51.902;12.836;2023-07-31T05:26:58;11.05;;;3.78;;
37299;SDS011;23184;51.902;12.836;2023-07-31T05:29:24;10.48;;;3.50;;
37299;SDS011;23184;51.902;12.836;2023-07-31T05:31:49;11.93;;;3.40;;
37299;SDS011;23184;51.902;12.836;2023-07-31T05:34:15;11.45;;;4.07;;
37299;SDS011;23184;51.902;12.836;2023-07-31T05:36:40;9.25;;;3.97;;
37299;SDS011;23184;51.902;12.836;2023-07-31T05:39:06;7.90;;;3.35;;
37299;SDS011;23184;51.902;12.836;2023-07-31T05:41:33;9.82;;;4.57;;
37299;SDS011;23184;51.902;12.836;2023-07-31T05:44:00;10.85;;;4.25;;
37299;SDS011;23184;51.902;12.836;2023-07-31T05:46:25;17.67;;;4.07;;
37299;SDS011;23184;51.902;12.836;2023-07-31T05:48:51;9.00;;;4.25;;
37299;SDS011;23184;51.902;12.836;2023-07-31T05:51:16;12.60;;;4.78;;
37299;SDS011;23184;51.902;12.836;2023-07-31T05:53:42;13.93;;;4.53;;
37299;SDS011;23184;51.902;12.836;2023-07-31T05:56:08;13.88;;;4.82;;
37299;SDS011;23184;51.902;12.836;2023-07-31T05:58:34;10.35;;;4.90;;
37299;SDS011;23184;51.902;12.836;2023-07-31T06:00:59;13.88;;;5.03;;
37299;SDS011;23184;51.902;12.836;2023-07-31T06:03:25;13.88;;;5.40;;
37299;SDS011;23184;51.902;12.836;2023-07-31T06:05:50;14.90;;;5.38;;
37299;SDS011;23184;51.902;12.836;2023-07-31T06:08:16;10.90;;;5.68;;
37299;SDS011;23184;51.902;12.836;2023-07-31T06:10:41;11.85;;;6.07;;
37299;SDS011;23184;51.902;12.836;2023-07-31T06:13:07;12.48;;;5.80;;
37299;SDS011;23184;51.902;12.836;2023-07-31T06:15:32;12.52;;;6.10;;
37299;SDS011;23184;51.902;12.836;2023-07-31T06:17:58;17.05;;;6.72;;
37299;SDS011;23184;51.902;12.836;2023-07-31T06:20:26;11.90;;;5.85;;
37299;SDS011;23184;51.902;12.836;2023-07-31T06:22:52;12.10;;;5.68;;
37299;SDS011;23184;51.902;12.836;2023-07-31T06:25:18;18.35;;;6.53;;
37299;SDS011;23184;51.902;12.836;2023-07-31T06:27:43;17.00;;;7.05;;
37299;SDS011;23184;51.902;12.836;2023-07-31T06:30:09;17.33;;;6.82;;
37299;SDS011;23184;51.902;12.836;2023-07-31T06:32:35;12.98;;;6.25;;
37299;SDS011;23184;51.902;12.836;2023-07-31T06:35:01;12.85;;;6.22;;
37299;SDS011;23184;51.902;12.836;2023-07-31T06:37:26;13.50;;;6.55;;
37299;SDS011;23184;51.902;12.836;2023-07-31T06:39:52;16.90;;;7.07;;
37299;SDS011;23184;51.902;12.836;2023-07-31T06:42:17;15.00;;;6.25;;
37299;SDS011;23184;51.902;12.836;2023-07-31T06:44:43;14.07;;;6.28;;
37299;SDS011;23184;51.902;12.836;2023-07-31T06:47:08;12.65;;;6.45;;
37299;SDS011;23184;51.902;12.836;2023-07-31T06:49:34;17.77;;;6.18;;
37299;SDS011;23184;51.902;12.836;2023-07-31T06:51:59;16.55;;;6.47;;
37299;SDS011;23184;51.902;12.836;2023-07-31T06:54:25;12.93;;;5.80;;
37299;SDS011;23184;51.902;12.836;2023-07-31T06:56:50;13.80;;;6.53;;
37299;SDS011;23184;51.902;12.836;2023-07-31T06:59:16;19.95;;;6.40;;
37299;SDS011;23184;51.902;12.836;2023-07-31T07:01:41;14.82;;;6.22;;
37299;SDS011;23184;51.902;12.836;2023-07-31T07:04:07;13.20;;;6.30;;
37299;SDS011;23184;51.902;12.836;2023-07-31T07:06:32;14.68;;;5.88;;
37299;SDS011;23184;51.902;12.836;2023-07-31T07:08:58;11.50;;;6.10;;
37299;SDS011;23184;51.902;12.836;2023-07-31T07:11:23;16.38;;;6.55;;
37299;SDS011;23184;51.902;12.836;2023-07-31T07:13:49;14.52;;;5.90;;
37299;SDS011;23184;51.902;12.836;2023-07-31T07:16:14;15.23;;;5.78;;
37299;SDS011;23184;51.902;12.836;2023-07-31T07:18:40;20.60;;;6.40;;
37299;SDS011;23184;51.902;12.836;2023-07-31T07:21:05;16.35;;;6.90;;
37299;SDS011;23184;51.902;12.836;2023-07-31T07:23:31;14.68;;;7.07;;
37299;SDS011;23184;51.902;12.836;2023-07-31T07:25:56;12.77;;;5.10;;
37299;SDS011;23184;51.902;12.836;2023-07-31T07:28:22;12.75;;;6.05;;
37299;SDS011;23184;51.902;12.836;2023-07-31T07:30:51;14.55;;;5.20;;
37299;SDS011;23184;51.902;12.836;2023-07-31T07:33:18;14.35;;;5.85;;
37299;SDS011;23184;51.902;12.836;2023-07-31T07:35:44;11.90;;;5.43;;
37299;SDS011;23184;51.902;12.836;2023-07-31T07:38:09;12.70;;;5.13;;
37299;SDS011;23184;51.902;12.836;2023-07-31T07:40:41;15.80;;;6.05;;
37299;SDS011;23184;51.902;12.836;2023-07-31T07:43:07;11.50;;;5.53;;
37299;SDS011;23184;51.902;12.836;2023-07-31T07:45:33;11.57;;;5.20;;
37299;SDS011;23184;51.902;12.836;2023-07-31T07:47:58;15.00;;;5.55;;
37299;SDS011;23184;51.902;12.836;2023-07-31T07:50:24;9.35;;;4.90;;
37299;SDS011;23184;51.902;12.836;2023-07-31T07:52:50;11.95;;;4.95;;
37299;SDS011;23184;51.902;12.836;2023-07-31T07:55:16;13.27;;;4.55;;
37299;SDS011;23184;51.902;12.836;2023-07-31T07:57:41;12.60;;;4.90;;
37299;SDS011;23184;51.902;12.836;2023-07-31T08:00:09;7.88;;;3.55;;
37299;SDS011;23184;51.902;12.836;2023-07-31T08:02:35;16.80;;;4.20;;
37299;SDS011;23184;51.902;12.836;2023-07-31T08:05:01;6.95;;;3.63;;
37299;SDS011;23184;51.902;12.836;2023-07-31T08:07:26;11.60;;;4.05;;
37299;SDS011;23184;51.902;12.836;2023-07-31T08:09:52;14.70;;;3.83;;
37299;SDS011;23184;51.902;12.836;2023-07-31T08:12:17;7.70;;;3.75;;
37299;SDS011;23184;51.902;12.836;2023-07-31T08:14:43;10.23;;;4.05;;
37299;SDS011;23184;51.902;12.836;2023-07-31T08:17:08;9.07;;;3.70;;
37299;SDS011;23184;51.902;12.836;2023-07-31T08:19:34;12.88;;;4.00;;
37299;SDS011;23184;51.902;12.836;2023-07-31T08:21:59;10.38;;;3.95;;
37299;SDS011;23184;51.902;12.836;2023-07-31T08:24:25;5.68;;;3.10;;
37299;SDS011;23184;51.902;12.836;2023-07-31T08:26:50;8.40;;;3.40;;
37299;SDS011;23184;51.902;12.836;2023-07-31T08:29:16;7.50;;;3.00;;
37299;SDS011;23184;51.902;12.836;2023-07-31T08:31:41;9.18;;;3.20;;
37299;SDS011;23184;51.902;12.836;2023-07-31T08:34:07;6.78;;;2.67;;
37299;SDS011;23184;51.902;12.836;2023-07-31T08:36:32;8.07;;;3.00;;
37299;SDS011;23184;51.902;12.836;2023-07-31T08:38:58;8.82;;;2.88;;
37299;SDS011;23184;51.902;12.836;2023-07-31T08:41:23;12.23;;;3.65;;
37299;SDS011;23184;51.902;12.836;2023-07-31T08:43:49;7.88;;;2.65;;
37299;SDS011;23184;51.902;12.836;2023-07-31T08:46:15;7.30;;;2.95;;
37299;SDS011;23184;51.902;12.836;2023-07-31T08:48:44;5.63;;;2.85;;
37299;SDS011;23184;51.902;12.836;2023-07-31T08:51:10;7.75;;;2.72;;
37299;SDS011;23184;51.902;12.836;2023-07-31T08:53:36;5.60;;;2.85;;
37299;SDS011;23184;51.902;12.836;2023-07-31T08:56:01;4.50;;;2.40;;
37299;SDS011;23184;51.902;12.836;2023-07-31T08:58:30;6.88;;;2.50;;
37299;SDS011;23184;51.902;12.836;2023-07-31T09:00:56;5.13;;;2.90;;
37299;SDS011;23184;51.902;12.836;2023-07-31T09:03:24;7.53;;;2.70;;
37299;SDS011;23184;51.902;12.836;2023-07-31T09:05:51;9.00;;;2.85;;
37299;SDS011;23184;51.902;12.836;2023-07-31T09:08:19;7.43;;;2.72;;
37299;SDS011;23184;51.902;12.836;2023-07-31T09:10:46;9.55;;;3.15;;
37299;SDS011;23184;51.902;12.836;2023-07-31T09:13:14;7.70;;;2.95;;
37299;SDS011;23184;51.902;12.836;2023-07-31T09:15:43;6.55;;;2.88;;
37299;SDS011;23184;51.902;12.836;2023-07-31T09:18:09;5.35;;;2.60;;
37299;SDS011;23184;51.902;12.836;2023-07-31T09:20:36;11.40;;;2.90;;
37299;SDS011;23184;51.902;12.836;2023-07-31T09:23:09;5.32;;;2.70;;
37299;SDS011;23184;51.902;12.836;2023-07-31T09:25:36;9.77;;;3.13;;
37299;SDS011;23184;51.902;12.836;2023-07-31T09:30:29;9.15;;;2.50;;
37299;SDS011;23184;51.902;12.836;2023-07-31T09:33:02;7.68;;;3.13;;
37299;SDS011;23184;51.902;12.836;2023-07-31T09:35:32;6.20;;;2.30;;
37299;SDS011;23184;51.902;12.836;2023-07-31T09:38:06;4.35;;;2.20;;
37299;SDS011;23184;51.902;12.836;2023-07-31T09:40:34;8.75;;;3.55;;
37299;SDS011;23184;51.902;12.836;2023-07-31T09:43:03;8.52;;;3.10;;
37299;SDS011;23184;51.902;12.836;2023-07-31T09:45:30;7.97;;;3.00;;
37299;SDS011;23184;51.902;12.836;2023-07-31T09:47:58;4.38;;;2.10;;
37299;SDS011;23184;51.902;12.836;2023-07-31T09:50:24;8.13;;;2.42;;
37299;SDS011;23184;51.902;12.836;2023-07-31T09:52:50;7.43;;;2.95;;
37299;SDS011;23184;51.902;12.836;2023-07-31T09:55:17;4.10;;;2.28;;
37299;SDS011;23184;51.902;12.836;2023-07-31T09:57:47;6.65;;;2.25;;
37299;SDS011;23184;51.902;12.836;2023-07-31T10:00:15;5.90;;;2.13;;
37299;SDS011;23184;51.902;12.836;2023-07-31T10:02:46;9.32;;;3.08;;
37299;SDS011;23184;51.902;12.836;2023-07-31T10:05:15;5.28;;;2.30;;
37299;SDS011;23184;51.902;12.836;2023-07-31T10:07:42;5.82;;;2.90;;
37299;SDS011;23184;51.902;12.836;2023-07-31T10:10:12;4.63;;;2.45;;
37299;SDS011;23184;51.902;12.836;2023-07-31T10:12:39;10.88;;;2.60;;
37299;SDS011;23184;51.902;12.836;2023-07-31T10:15:05;8.73;;;2.70;;
37299;SDS011;23184;51.902;12.836;2023-07-31T10:17:31;8.13;;;2.80;;
37299;SDS011;23184;51.902;12.836;2023-07-31T10:19:58;10.55;;;2.78;;
37299;SDS011;23184;51.902;12.836;2023-07-31T10:22:29;5.40;;;2.78;;
37299;SDS011;23184;51.902;12.836;2023-07-31T10:24:55;4.90;;;2.35;;
37299;SDS011;23184;51.902;12.836;2023-07-31T10:27:23;8.60;;;2.60;;
37299;SDS011;23184;51.902;12.836;2023-07-31T10:29:49;6.80;;;2.55;;
37299;SDS011;23184;51.902;12.836;2023-07-31T10:32:16;6.97;;;2.90;;
37299;SDS011;23184;51.902;12.836;2023-07-31T10:34:43;7.63;;;2.35;;
37299;SDS011;23184;51.902;12.836;2023-07-31T10:42:50;6.93;;;2.55;;
37299;SDS011;23184;51.902;12.836;2023-07-31T10:45:24;6.30;;;2.13;;
37299;SDS011;23184;51.902;12.836;2023-07-31T10:48:14;7.22;;;2.25;;
37299;SDS011;23184;51.902;12.836;2023-07-31T10:50:51;4.38;;;2.25;;
37299;SDS011;23184;51.902;12.836;2023-07-31T10:53:24;9.00;;;1.90;;
37299;SDS011;23184;51.902;12.836;2023-07-31T10:56:00;4.63;;;2.03;;
37299;SDS011;23184;51.902;12.836;2023-07-31T10:58:44;6.43;;;2.55;;
37299;SDS011;23184;51.902;12.836;2023-07-31T11:01:11;4.30;;;2.03;;
37299;SDS011;23184;51.902;12.836;2023-07-31T11:03:43;6.82;;;3.22;;
37299;SDS011;23184;51.902;12.836;2023-07-31T11:06:11;7.85;;;2.80;;
37299;SDS011;23184;51.902;12.836;2023-07-31T11:08:44;6.97;;;2.67;;
37299;SDS011;23184;51.902;12.836;2023-07-31T11:11:12;9.45;;;3.35;;
37299;SDS011;23184;51.902;12.836;2023-07-31T11:13:44;6.70;;;3.05;;
37299;SDS011;23184;51.902;12.836;2023-07-31T11:16:12;5.13;;;2.88;;
37299;SDS011;23184;51.902;12.836;2023-07-31T11:18:39;6.70;;;3.00;;
37299;SDS011;23184;51.902;12.836;2023-07-31T11:21:08;8.60;;;3.17;;
37299;SDS011;23184;51.902;12.836;2023-07-31T11:23:37;7.43;;;2.90;;
37299;SDS011;23184;51.902;12.836;2023-07-31T11:26:04;6.18;;;2.97;;
37299;SDS011;23184;51.902;12.836;2023-07-31T11:28:31;5.85;;;2.78;;
37299;SDS011;23184;51.902;12.836;2023-07-31T11:30:58;6.63;;;2.33;;
37299;SDS011;23184;51.902;12.836;2023-07-31T11:33:24;6.18;;;2.97;;
37299;SDS011;23184;51.902;12.836;2023-07-31T11:35:50;8.57;;;3.17;;
37299;SDS011;23184;51.902;12.836;2023-07-31T11:38:22;7.03;;;2.80;;
37299;SDS011;23184;51.902;12.836;2023-07-31T11:40:49;5.75;;;2.92;;
37299;SDS011;23184;51.902;12.836;2023-07-31T11:43:15;6.82;;;2.70;;
37299;SDS011;23184;51.902;12.836;2023-07-31T11:45:47;6.22;;;2.90;;
37299;SDS011;23184;51.902;12.836;2023-07-31T11:50:50;8.55;;;3.33;;
37299;SDS011;23184;51.902;12.836;2023-07-31T11:53:18;9.80;;;3.00;;
37299;SDS011;23184;51.902;12.836;2023-07-31T11:55:48;8.25;;;3.25;;
37299;SDS011;23184;51.902;12.836;2023-07-31T11:58:14;7.57;;;3.15;;
37299;SDS011;23184;51.902;12.836;2023-07-31T12:00:41;10.48;;;3.47;;
37299;SDS011;23184;51.902;12.836;2023-07-31T12:03:06;6.85;;;3.38;;
37299;SDS011;23184;51.902;12.836;2023-07-31T12:05:32;11.38;;;3.80;;
37299;SDS011;23184;51.902;12.836;2023-07-31T12:07:58;5.28;;;3.10;;
37299;SDS011;23184;51.902;12.836;2023-07-31T12:10:24;6.38;;;3.35;;
37299;SDS011;23184;51.902;12.836;2023-07-31T12:12:59;7.50;;;3.55;;
37299;SDS011;23184;51.902;12.836;2023-07-31T12:15:39;9.70;;;3.55;;
37299;SDS011;23184;51.902;12.836;2023-07-31T12:18:16;7.97;;;3.10;;
37299;SDS011;23184;51.902;12.836;2023-07-31T12:20:46;6.40;;;3.35;;
37299;SDS011;23184;51.902;12.836;2023-07-31T12:23:20;9.48;;;3.72;;
37299;SDS011;23184;51.902;12.836;2023-07-31T12:26:09;7.30;;;3.55;;
37299;SDS011;23184;51.902;12.836;2023-07-31T12:28:47;6.95;;;3.47;;
37299;SDS011;23184;51.902;12.836;2023-07-31T12:31:18;8.18;;;3.47;;
37299;SDS011;23184;51.902;12.836;2023-07-31T12:33:46;9.90;;;3.28;;
37299;SDS011;23184;51.902;12.836;2023-07-31T12:36:18;7.55;;;3.40;;
37299;SDS011;23184;51.902;12.836;2023-07-31T12:38:46;6.00;;;3.40;;
37299;SDS011;23184;51.902;12.836;2023-07-31T12:41:11;8.88;;;3.38;;
37299;SDS011;23184;51.902;12.836;2023-07-31T12:43:38;8.50;;;3.88;;
37299;SDS011;23184;51.902;12.836;2023-07-31T12:46:04;6.82;;;3.03;;
37299;SDS011;23184;51.902;12.836;2023-07-31T12:48:31;4.78;;;3.30;;
37299;SDS011;23184;51.902;12.836;2023-07-31T12:50:57;13.55;;;3.50;;
37299;SDS011;23184;51.902;12.836;2023-07-31T12:53:22;6.65;;;3.08;;
37299;SDS011;23184;51.902;12.836;2023-07-31T12:55:48;14.43;;;3.63;;
37299;SDS011;23184;51.902;12.836;2023-07-31T12:58:14;9.05;;;3.08;;
37299;SDS011;23184;51.902;12.836;2023-07-31T13:00:39;7.72;;;3.65;;
37299;SDS011;23184;51.902;12.836;2023-07-31T13:03:05;6.03;;;2.92;;
37299;SDS011;23184;51.902;12.836;2023-07-31T13:05:30;6.05;;;3.05;;
37299;SDS011;23184;51.902;12.836;2023-07-31T13:07:56;5.60;;;2.78;;
37299;SDS011;23184;51.902;12.836;2023-07-31T13:10:22;6.82;;;2.80;;
37299;SDS011;23184;51.902;12.836;2023-07-31T13:12:48;6.40;;;2.67;;
37299;SDS011;23184;51.902;12.836;2023-07-31T13:15:13;4.30;;;2.60;;
37299;SDS011;23184;51.902;12.836;2023-07-31T13:17:39;8.02;;;3.10;;
37299;SDS011;23184;51.902;12.836;2023-07-31T13:20:05;5.28;;;2.63;;
37299;SDS011;23184;51.902;12.836;2023-07-31T13:22:31;6.00;;;2.60;;
37299;SDS011;23184;51.902;12.836;2023-07-31T13:24:56;5.60;;;2.88;;
37299;SDS011;23184;51.902;12.836;2023-07-31T13:27:22;4.95;;;2.67;;
37299;SDS011;23184;51.902;12.836;2023-07-31T13:29:48;4.78;;;2.75;;
37299;SDS011;23184;51.902;12.836;2023-07-31T13:32:15;5.93;;;2.65;;
37299;SDS011;23184;51.902;12.836;2023-07-31T13:34:41;8.20;;;3.10;;
37299;SDS011;23184;51.902;12.836;2023-07-31T13:37:07;6.15;;;2.97;;
37299;SDS011;23184;51.902;12.836;2023-07-31T13:39:32;7.53;;;3.05;;
37299;SDS011;23184;51.902;12.836;2023-07-31T13:41:59;5.70;;;2.85;;
37299;SDS011;23184;51.902;12.836;2023-07-31T13:44:25;8.60;;;3.13;;
37299;SDS011;23184;51.902;12.836;2023-07-31T13:46:51;6.32;;;3.58;;
37299;SDS011;23184;51.902;12.836;2023-07-31T13:49:16;8.32;;;3.55;;
37299;SDS011;23184;51.902;12.836;2023-07-31T13:51:42;6.05;;;2.90;;
37299;SDS011;23184;51.902;12.836;2023-07-31T13:54:08;7.15;;;3.58;;
37299;SDS011;23184;51.902;12.836;2023-07-31T13:56:33;8.68;;;3.53;;
37299;SDS011;23184;51.902;12.836;2023-07-31T13:58:59;7.53;;;3.10;;
37299;SDS011;23184;51.902;12.836;2023-07-31T14:01:26;7.38;;;3.47;;
37299;SDS011;23184;51.902;12.836;2023-07-31T14:03:51;7.68;;;3.00;;
37299;SDS011;23184;51.902;12.836;2023-07-31T14:06:17;7.13;;;3.30;;
37299;SDS011;23184;51.902;12.836;2023-07-31T14:08:42;7.35;;;3.20;;
37299;SDS011;23184;51.902;12.836;2023-07-31T14:11:08;7.15;;;3.28;;
37299;SDS011;23184;51.902;12.836;2023-07-31T14:13:33;5.55;;;2.97;;
37299;SDS011;23184;51.902;12.836;2023-07-31T14:15:59;8.38;;;2.88;;
37299;SDS011;23184;51.902;12.836;2023-07-31T14:18:24;7.07;;;2.85;;
37299;SDS011;23184;51.902;12.836;2023-07-31T14:20:50;5.68;;;3.03;;
37299;SDS011;23184;51.902;12.836;2023-07-31T14:23:16;4.35;;;2.47;;
37299;SDS011;23184;51.902;12.836;2023-07-31T14:25:41;5.82;;;2.95;;
37299;SDS011;23184;51.902;12.836;2023-07-31T14:28:07;7.28;;;3.28;;
37299;SDS011;23184;51.902;12.836;2023-07-31T14:30:32;4.13;;;2.78;;
37299;SDS011;23184;51.902;12.836;2023-07-31T14:32:58;7.35;;;2.60;;
37299;SDS011;23184;51.902;12.836;2023-07-31T14:35:25;7.40;;;2.90;;
37299;SDS011;23184;51.902;12.836;2023-07-31T14:37:51;6.43;;;2.65;;
37299;SDS011;23184;51.902;12.836;2023-07-31T14:40:16;8.20;;;2.85;;
37299;SDS011;23184;51.902;12.836;2023-07-31T14:42:42;7.43;;;2.80;;
37299;SDS011;23184;51.902;12.836;2023-07-31T14:45:07;9.80;;;3.17;;
37299;SDS011;23184;51.902;12.836;2023-07-31T14:47:34;7.53;;;3.03;;